< < Back
Terminal Aerodrome Forecast


Current Version              Previous Versions:   1  2  3  4  5  6  7  8  9  

Terminal Aerodrome Forecast

749
FTUS42 KTAE 282320
TAFTLH
TAF
KTLH 282320Z 2900/2924 30004KT P6SM FEW060
     FM292100 18007KT 6SM TSRA BKN040CB=

Latest METAR

742
SAUS80 KWBC 291600 RRB
MTRTLH
METAR KTLH 291553Z 35007KT 10SM FEW040 BKN250 34/24 A2998 RMK AO2 SLP152
T03390244 $


USA.gov is the U.S. government's official web portal to all federal, state and local government web resources and services.